createdAt,value
2023-01-12T00:02:20.277Z,1.80
2023-01-12T00:04:48.662Z,1.60
2023-01-12T00:07:18.216Z,1.70
2023-01-12T00:09:46.853Z,1.50
2023-01-12T00:12:15.260Z,1.50
2023-01-12T00:14:43.675Z,1.70
2023-01-12T00:17:17.023Z,2.00
2023-01-12T00:19:45.580Z,1.60
2023-01-12T00:22:17.696Z,1.73
2023-01-12T00:24:47.974Z,1.63
2023-01-12T00:27:17.337Z,1.63
2023-01-12T00:29:45.722Z,1.63
2023-01-12T00:32:16.421Z,2.10
2023-01-12T00:34:45.180Z,1.53
2023-01-12T00:37:14.011Z,2.10
2023-01-12T00:39:53.147Z,1.83
2023-01-12T00:42:46.631Z,2.30
2023-01-12T00:45:24.581Z,2.00
2023-01-12T00:47:54.824Z,1.80
2023-01-12T00:50:23.430Z,1.80
2023-01-12T00:52:51.815Z,2.00
2023-01-12T00:55:20.627Z,2.10
2023-01-12T00:57:49.145Z,1.80
2023-01-12T01:00:18.188Z,1.83
2023-01-12T01:02:46.588Z,2.00
2023-01-12T01:05:17.703Z,2.10
2023-01-12T01:07:47.300Z,2.07
2023-01-12T01:10:16.407Z,1.93
2023-01-12T01:12:44.818Z,2.03
2023-01-12T01:15:13.309Z,1.90
2023-01-12T01:17:41.776Z,1.90
2023-01-12T01:20:10.871Z,2.10
2023-01-12T01:22:40.696Z,2.00
2023-01-12T01:25:09.372Z,2.23
2023-01-12T01:27:37.735Z,1.97
2023-01-12T01:30:06.565Z,1.97
2023-01-12T01:32:34.954Z,1.60
2023-01-12T01:35:03.317Z,1.90
2023-01-12T01:37:31.974Z,2.00
2023-01-12T01:40:01.913Z,1.90
2023-01-12T01:42:30.312Z,1.87
2023-01-12T01:44:59.592Z,1.57
2023-01-12T01:47:30.511Z,1.70
2023-01-12T01:50:01.204Z,1.40
2023-01-12T01:52:32.716Z,1.63
2023-01-12T01:55:04.168Z,1.97
2023-01-12T01:57:35.250Z,1.70
2023-01-12T02:00:04.585Z,1.70
2023-01-12T02:02:33.995Z,1.60
2023-01-12T02:05:02.440Z,1.63
2023-01-12T02:07:30.824Z,2.00
2023-01-12T02:09:59.171Z,1.67
2023-01-12T02:12:46.445Z,1.40
2023-01-12T02:15:32.293Z,1.50
2023-01-12T02:18:10.594Z,1.60
2023-01-12T02:20:48.397Z,1.40
2023-01-12T02:23:35.359Z,1.47
2023-01-12T02:26:18.513Z,1.70
2023-01-12T02:29:05.258Z,1.53
2023-01-12T02:31:51.599Z,1.50
2023-01-12T02:34:26.140Z,1.70
2023-01-12T02:36:58.536Z,1.50
2023-01-12T02:39:29.911Z,1.60
2023-01-12T02:42:20.786Z,1.43
2023-01-12T02:44:53.423Z,1.40
2023-01-12T02:47:27.015Z,1.73
2023-01-12T02:49:57.956Z,1.87
2023-01-12T02:52:28.552Z,1.70
2023-01-12T02:54:57.232Z,1.57
2023-01-12T02:57:26.520Z,1.73
2023-01-12T02:59:57.154Z,1.60
2023-01-12T03:02:27.700Z,1.87
2023-01-12T03:04:57.626Z,1.80
2023-01-12T03:07:30.122Z,1.67
2023-01-12T03:10:01.411Z,2.00
2023-01-12T03:12:32.267Z,1.13
2023-01-12T03:15:01.838Z,1.57
2023-01-12T03:17:32.063Z,1.60
2023-01-12T03:20:05.596Z,1.10
2023-01-12T03:22:36.348Z,1.97
2023-01-12T03:25:10.342Z,1.53
2023-01-12T03:27:40.543Z,1.30
2023-01-12T03:30:10.322Z,1.50
2023-01-12T03:32:38.944Z,1.40
2023-01-12T03:35:09.803Z,1.30
2023-01-12T03:37:39.418Z,1.30
2023-01-12T03:40:10.988Z,1.40
2023-01-12T03:42:40.340Z,1.37
2023-01-12T03:45:12.592Z,1.27
2023-01-12T03:47:43.058Z,1.43
2023-01-12T03:50:15.511Z,1.30
2023-01-12T03:52:45.277Z,1.30
2023-01-12T03:55:17.519Z,1.23
2023-01-12T03:57:46.570Z,1.20
2023-01-12T04:00:16.055Z,1.13
2023-01-12T04:02:44.961Z,1.40
2023-01-12T04:05:15.618Z,1.10
2023-01-12T04:07:44.045Z,1.10
2023-01-12T04:10:12.702Z,1.10
2023-01-12T04:12:41.076Z,1.20
2023-01-12T04:15:09.926Z,1.20
2023-01-12T04:17:38.471Z,1.47
2023-01-12T04:20:09.402Z,1.20
2023-01-12T04:22:44.491Z,1.10
2023-01-12T04:25:13.426Z,1.57
2023-01-12T04:27:47.870Z,1.40
2023-01-12T04:30:16.981Z,1.27
2023-01-12T04:32:45.692Z,1.20
2023-01-12T04:35:14.497Z,1.20
2023-01-12T04:37:44.645Z,1.20
2023-01-12T04:40:14.343Z,1.60
2023-01-12T04:43:01.912Z,1.50
2023-01-12T04:45:30.561Z,1.67
2023-01-12T04:48:02.729Z,1.40
2023-01-12T04:50:31.436Z,1.30
2023-01-12T04:53:03.328Z,1.20
2023-01-12T04:55:31.739Z,1.53
2023-01-12T04:58:00.186Z,1.17
2023-01-12T05:00:28.583Z,1.53
2023-01-12T05:02:59.289Z,1.30
2023-01-12T05:05:27.703Z,1.10
2023-01-12T05:08:14.046Z,1.13
2023-01-12T05:10:43.798Z,1.60
2023-01-12T05:13:12.191Z,1.20
2023-01-12T05:15:40.563Z,1.57
2023-01-12T05:18:08.944Z,1.10
2023-01-12T05:20:37.316Z,1.27
2023-01-12T05:23:05.810Z,1.40
2023-01-12T05:25:34.241Z,1.80
2023-01-12T05:28:04.021Z,1.57
2023-01-12T05:30:32.639Z,1.27
2023-01-12T05:33:01.094Z,0.87
2023-01-12T05:35:29.790Z,1.60
2023-01-12T05:37:58.369Z,1.63
2023-01-12T05:40:26.771Z,1.20
2023-01-12T05:43:12.830Z,1.50
2023-01-12T05:45:42.583Z,1.33
2023-01-12T05:48:11.969Z,1.27
2023-01-12T05:50:40.350Z,1.60
2023-01-12T05:53:11.994Z,1.17
2023-01-12T05:55:40.414Z,1.60
2023-01-12T05:58:08.834Z,1.30
2023-01-12T06:00:37.703Z,1.60
2023-01-12T06:03:07.487Z,1.27
2023-01-12T06:05:35.910Z,1.60
2023-01-12T06:08:04.309Z,1.63
2023-01-12T06:10:34.347Z,1.20
2023-01-12T06:13:20.454Z,1.30
2023-01-12T06:15:48.957Z,1.60
2023-01-12T06:18:22.538Z,1.23
2023-01-12T06:20:50.990Z,1.37
2023-01-12T06:23:19.540Z,1.30
2023-01-12T06:25:47.961Z,1.67
2023-01-12T06:28:16.469Z,1.40
2023-01-12T06:30:44.859Z,1.10
2023-01-12T06:33:14.461Z,1.80
2023-01-12T06:35:49.560Z,1.40
2023-01-12T06:38:19.027Z,1.50
2023-01-12T06:40:47.671Z,1.20
2023-01-12T06:43:16.042Z,1.70
2023-01-12T06:45:44.500Z,1.10
2023-01-12T06:48:13.234Z,1.20
2023-01-12T06:50:41.876Z,1.20
2023-01-12T06:53:12.799Z,1.53
2023-01-12T06:55:41.320Z,1.70
2023-01-12T06:58:09.711Z,1.10
2023-01-12T07:00:38.123Z,1.67
2023-01-12T07:03:06.644Z,1.87
2023-01-12T07:05:35.127Z,1.60
2023-01-12T07:08:03.548Z,2.17
2023-01-12T07:10:33.540Z,1.33
2023-01-12T07:13:02.427Z,1.40
2023-01-12T07:15:30.884Z,1.50
2023-01-12T07:17:59.673Z,1.33
2023-01-12T07:20:28.701Z,1.30
2023-01-12T07:22:57.146Z,1.50
2023-01-12T07:25:25.762Z,2.00
2023-01-12T07:27:56.291Z,1.53
2023-01-12T07:30:25.494Z,1.80
2023-01-12T07:32:54.396Z,1.97
2023-01-12T07:35:25.273Z,1.20
2023-01-12T07:37:55.056Z,1.30
2023-01-12T07:40:23.470Z,1.30
2023-01-12T07:42:59.563Z,1.53
2023-01-12T07:45:28.429Z,1.27
2023-01-12T07:47:56.904Z,2.00
2023-01-12T07:50:26.251Z,1.70
2023-01-12T07:52:54.685Z,1.50
2023-01-12T07:55:23.126Z,1.60
2023-01-12T07:57:59.758Z,2.17
2023-01-12T08:00:28.593Z,1.60
2023-01-12T08:02:59.093Z,1.40
2023-01-12T08:05:27.510Z,1.47
2023-01-12T08:07:55.935Z,2.50
2023-01-12T08:10:24.360Z,1.80
2023-01-12T08:12:52.982Z,1.37
2023-01-12T08:15:22.886Z,1.20
2023-01-12T08:17:54.488Z,1.20
2023-01-12T08:20:25.532Z,1.67
2023-01-12T08:22:56.274Z,1.47
2023-01-12T08:25:27.779Z,1.40
2023-01-12T08:27:58.012Z,1.30
2023-01-12T08:30:28.689Z,1.10
2023-01-12T08:32:57.514Z,1.43
2023-01-12T08:35:27.639Z,1.40
2023-01-12T08:37:56.560Z,1.53
2023-01-12T08:40:45.035Z,1.20
2023-01-12T08:43:13.448Z,1.33
2023-01-12T08:45:43.217Z,1.70
2023-01-12T08:48:11.625Z,1.20
2023-01-12T08:50:40.143Z,1.33
2023-01-12T08:53:08.621Z,1.60
2023-01-12T08:55:36.979Z,1.40
2023-01-12T08:58:05.403Z,1.50
2023-01-12T09:00:33.834Z,1.20
2023-01-12T09:03:04.157Z,0.90
2023-01-12T09:05:32.568Z,1.37
2023-01-12T09:08:02.024Z,1.30
2023-01-12T09:10:30.468Z,1.10
2023-01-12T09:12:58.859Z,2.00
2023-01-12T09:15:27.422Z,1.80
2023-01-12T09:17:55.943Z,1.20
2023-01-12T09:20:25.762Z,0.90
2023-01-12T09:22:54.141Z,1.10
2023-01-12T09:25:22.676Z,1.50
2023-01-12T09:27:51.107Z,1.10
2023-01-12T09:30:19.705Z,1.17
2023-01-12T09:32:48.310Z,1.60
2023-01-12T09:35:19.878Z,1.50
2023-01-12T09:37:49.625Z,1.37
2023-01-12T09:40:19.075Z,1.10
2023-01-12T09:43:07.809Z,1.20
2023-01-12T09:45:53.883Z,1.10
2023-01-12T09:48:23.420Z,1.40
2023-01-12T09:50:53.796Z,1.20
2023-01-12T09:53:25.192Z,1.20
2023-01-12T09:55:57.797Z,1.40
2023-01-12T09:58:32.101Z,1.20
2023-01-12T10:01:00.996Z,1.23
2023-01-12T10:03:31.968Z,1.23
2023-01-12T10:06:01.611Z,0.90
2023-01-12T10:08:33.753Z,1.00
2023-01-12T10:11:06.042Z,1.00
2023-01-12T10:13:43.660Z,1.10
2023-01-12T10:16:17.718Z,1.10
2023-01-12T10:18:49.529Z,1.07
2023-01-12T10:21:17.932Z,1.10
2023-01-12T10:23:47.766Z,1.10
2023-01-12T10:26:23.177Z,1.10
2023-01-12T10:28:53.462Z,1.43
2023-01-12T10:31:23.534Z,1.17
2023-01-12T10:34:05.015Z,1.70
2023-01-12T10:36:33.462Z,0.83
2023-01-12T10:39:04.324Z,1.00
2023-01-12T10:41:33.248Z,1.40
2023-01-12T10:44:09.479Z,0.90
2023-01-12T10:46:37.858Z,1.00
2023-01-12T10:49:19.254Z,1.17
2023-01-12T10:51:52.833Z,1.10
2023-01-12T10:54:24.204Z,1.30
2023-01-12T10:56:57.235Z,1.13
2023-01-12T10:59:28.819Z,1.03
2023-01-12T11:02:12.651Z,1.20
2023-01-12T11:04:42.932Z,0.80
2023-01-12T11:07:13.454Z,1.47
2023-01-12T11:09:44.358Z,1.17
2023-01-12T11:12:25.199Z,1.23
2023-01-12T11:15:03.655Z,1.20
2023-01-12T11:17:56.187Z,1.27
2023-01-12T11:20:30.750Z,1.00
2023-01-12T11:23:02.689Z,1.33
2023-01-12T11:25:36.425Z,1.00
2023-01-12T11:28:08.603Z,1.00
2023-01-12T11:30:41.296Z,1.00
2023-01-12T11:33:14.606Z,1.20
2023-01-12T11:35:50.045Z,1.47
2023-01-12T11:38:22.609Z,1.00
2023-01-12T11:40:53.416Z,0.90
2023-01-12T11:43:55.827Z,1.13
2023-01-12T11:46:29.686Z,1.03
2023-01-12T11:49:07.492Z,0.83
2023-01-12T11:51:35.675Z,0.93
2023-01-12T11:54:04.101Z,1.00
2023-01-12T11:56:57.429Z,1.10
2023-01-12T11:59:34.633Z,1.03
2023-01-12T12:02:13.829Z,1.10
2023-01-12T12:04:51.211Z,1.13
2023-01-12T12:07:33.017Z,1.27
2023-01-12T12:10:14.703Z,1.00
2023-01-12T12:12:48.128Z,0.90
2023-01-12T12:15:24.192Z,1.00
2023-01-12T12:17:56.648Z,1.03
2023-01-12T12:20:31.270Z,1.17
2023-01-12T12:23:02.869Z,1.63
2023-01-12T12:25:39.047Z,1.37
2023-01-12T12:28:20.623Z,1.07
2023-01-12T12:31:13.676Z,0.90
2023-01-12T12:33:57.741Z,0.90
2023-01-12T12:36:31.839Z,0.90
2023-01-12T12:39:30.377Z,1.00
2023-01-12T12:42:24.388Z,0.70
2023-01-12T12:45:18.636Z,0.90
2023-01-12T12:47:57.483Z,0.80
2023-01-12T12:50:30.384Z,0.87
2023-01-12T12:53:22.084Z,1.00
2023-01-12T12:55:52.377Z,1.10
2023-01-12T12:58:40.807Z,1.00
2023-01-12T13:01:28.239Z,1.10
2023-01-12T13:04:00.307Z,1.00
2023-01-12T13:06:30.994Z,0.97
2023-01-12T13:09:00.415Z,1.10
2023-01-12T13:11:43.732Z,1.20
2023-01-12T13:14:20.219Z,1.00
2023-01-12T13:16:49.606Z,0.90
2023-01-12T13:19:39.477Z,0.83
2023-01-12T13:22:29.641Z,0.80
2023-01-12T13:24:58.565Z,0.70
2023-01-12T13:27:48.232Z,0.80
2023-01-12T13:30:20.819Z,0.83
2023-01-12T13:32:58.480Z,1.10
2023-01-12T13:35:56.881Z,0.67
2023-01-12T13:38:33.166Z,1.50
2023-01-12T13:41:04.026Z,0.70
2023-01-12T13:43:38.093Z,0.90
2023-01-12T13:46:14.408Z,0.90
2023-01-12T13:48:44.666Z,1.10
2023-01-12T13:51:15.646Z,1.10
2023-01-12T13:53:45.477Z,0.93
2023-01-12T13:56:21.600Z,1.00
2023-01-12T13:58:52.668Z,0.83
2023-01-12T14:01:28.120Z,1.30
2023-01-12T14:04:20.413Z,1.10
2023-01-12T14:06:56.855Z,1.07
2023-01-12T14:09:31.404Z,0.80
2023-01-12T14:12:11.351Z,0.80
2023-01-12T14:15:08.322Z,0.90
2023-01-12T14:17:53.476Z,0.93
2023-01-12T14:20:22.947Z,0.97
2023-01-12T14:22:51.791Z,1.07
2023-01-12T14:25:23.027Z,0.90
2023-01-12T14:27:52.484Z,0.90
2023-01-12T14:30:24.139Z,0.80
2023-01-12T14:32:52.849Z,0.80
2023-01-12T14:35:22.241Z,0.80
2023-01-12T14:37:52.498Z,1.07
2023-01-12T14:40:25.294Z,1.33
2023-01-12T14:43:11.919Z,0.97
2023-01-12T14:46:00.398Z,1.20
2023-01-12T14:48:29.745Z,0.97
2023-01-12T14:51:02.032Z,0.90
2023-01-12T14:53:34.727Z,0.80
2023-01-12T14:56:17.773Z,0.80
2023-01-12T14:58:47.028Z,1.03
2023-01-12T15:01:27.843Z,0.90
2023-01-12T15:03:56.476Z,0.90
2023-01-12T15:06:24.847Z,0.90
2023-01-12T15:08:57.608Z,0.80
2023-01-12T15:11:35.288Z,1.27
2023-01-12T15:14:04.994Z,0.80
2023-01-12T15:16:56.184Z,1.57
2023-01-12T15:19:42.040Z,1.40
2023-01-12T15:22:28.460Z,1.53
2023-01-12T15:25:15.409Z,1.20
2023-01-12T15:27:45.154Z,1.47
2023-01-12T15:30:13.903Z,1.30
2023-01-12T15:32:48.199Z,1.07
2023-01-12T15:35:21.268Z,1.40
2023-01-12T15:37:50.113Z,1.10
2023-01-12T15:40:19.402Z,0.90
2023-01-12T15:42:53.029Z,0.90
2023-01-12T15:45:30.604Z,1.00
2023-01-12T15:47:58.994Z,0.73
2023-01-12T15:50:29.278Z,1.03
2023-01-12T15:52:58.839Z,1.03
2023-01-12T15:55:27.289Z,1.10
2023-01-12T15:57:57.084Z,1.00
2023-01-12T16:00:25.973Z,1.10
2023-01-12T16:02:54.475Z,1.40
2023-01-12T16:05:23.987Z,2.17
2023-01-12T16:07:52.407Z,1.57
2023-01-12T16:10:21.147Z,0.80
2023-01-12T16:12:49.547Z,1.00
2023-01-12T16:15:20.407Z,0.80
2023-01-12T16:17:49.230Z,0.80
2023-01-12T16:20:18.394Z,1.00
2023-01-12T16:22:47.160Z,0.90
2023-01-12T16:25:16.112Z,1.07
2023-01-12T16:27:45.320Z,0.93
2023-01-12T16:30:15.116Z,0.90
2023-01-12T16:32:47.272Z,0.90
2023-01-12T16:35:16.689Z,0.90
2023-01-12T16:37:45.220Z,1.00
2023-01-12T16:40:14.141Z,0.70
2023-01-12T16:42:42.525Z,0.93
2023-01-12T16:45:11.522Z,1.00
2023-01-12T16:47:39.983Z,0.90
2023-01-12T16:50:10.411Z,1.00
2023-01-12T16:52:38.931Z,1.10
2023-01-12T16:55:07.746Z,0.93
2023-01-12T16:57:37.330Z,0.93
2023-01-12T17:00:06.498Z,1.37
2023-01-12T17:02:35.260Z,1.07
2023-01-12T17:05:05.069Z,1.13
2023-01-12T17:07:35.062Z,1.10
2023-01-12T17:10:03.677Z,1.10
2023-01-12T17:12:33.542Z,1.10
2023-01-12T17:15:02.056Z,0.97
2023-01-12T17:17:30.645Z,0.90
2023-01-12T17:19:59.706Z,1.20
2023-01-12T17:22:28.943Z,1.00
2023-01-12T17:24:59.113Z,1.27
2023-01-12T17:27:28.176Z,1.30
2023-01-12T17:29:56.683Z,1.10
2023-01-12T17:32:25.236Z,1.00
2023-01-12T17:34:53.683Z,1.07
2023-01-12T17:37:22.203Z,1.20
2023-01-12T17:39:50.693Z,1.13
2023-01-12T17:42:38.215Z,0.80
2023-01-12T17:45:07.510Z,0.90
2023-01-12T17:47:36.238Z,1.10
2023-01-12T17:50:04.797Z,1.30
2023-01-12T17:52:33.245Z,1.77
2023-01-12T17:55:01.705Z,1.73
2023-01-12T17:57:32.924Z,1.50
2023-01-12T18:00:01.577Z,1.10
2023-01-12T18:02:30.188Z,1.10
2023-01-12T18:04:59.714Z,1.13
2023-01-12T18:07:28.958Z,1.30
2023-01-12T18:09:57.471Z,1.33
2023-01-12T18:12:27.477Z,1.33
2023-01-12T18:14:57.660Z,1.20
2023-01-12T18:17:26.444Z,1.17
2023-01-12T18:19:55.006Z,1.30
2023-01-12T18:22:23.749Z,1.30
2023-01-12T18:24:52.241Z,1.10
2023-01-12T18:27:20.719Z,1.43
2023-01-12T18:29:49.111Z,1.23
2023-01-12T18:32:18.897Z,1.30
2023-01-12T18:34:47.352Z,1.00
2023-01-12T18:37:16.854Z,1.20
2023-01-12T18:39:45.643Z,1.20
2023-01-12T18:42:32.064Z,1.30
2023-01-12T18:45:03.911Z,1.30
2023-01-12T18:47:51.524Z,1.00
2023-01-12T18:50:37.815Z,1.00
2023-01-12T18:53:25.641Z,1.40
2023-01-12T18:55:57.039Z,2.00
2023-01-12T18:58:27.423Z,2.30
2023-01-12T19:00:56.467Z,1.43
2023-01-12T19:03:26.845Z,1.20
2023-01-12T19:06:00.065Z,1.60
2023-01-12T19:08:46.947Z,1.27
2023-01-12T19:11:16.526Z,1.50
2023-01-12T19:14:03.077Z,1.90
2023-01-12T19:16:49.059Z,1.50
2023-01-12T19:19:22.904Z,1.10
2023-01-12T19:22:09.047Z,1.23
2023-01-12T19:24:55.063Z,1.60
2023-01-12T19:27:41.635Z,1.23
2023-01-12T19:30:10.900Z,1.57
2023-01-12T19:32:39.970Z,1.53
2023-01-12T19:35:11.848Z,1.50
2023-01-12T19:37:42.515Z,1.53
2023-01-12T19:40:18.081Z,1.47
2023-01-12T19:43:03.896Z,1.50
2023-01-12T19:45:32.430Z,1.30
2023-01-12T19:48:01.127Z,1.20
2023-01-12T19:50:30.952Z,1.53
2023-01-12T19:52:59.874Z,1.37
2023-01-12T19:55:28.424Z,1.13
2023-01-12T19:57:58.445Z,2.03
2023-01-12T20:00:27.529Z,1.43
2023-01-12T20:02:55.974Z,1.30
2023-01-12T20:05:24.400Z,1.57
2023-01-12T20:07:54.548Z,1.80
2023-01-12T20:10:23.716Z,1.67
2023-01-12T20:12:52.616Z,1.60
2023-01-12T20:15:21.690Z,1.33
2023-01-12T20:17:50.714Z,1.30
2023-01-12T20:20:19.680Z,1.30
2023-01-12T20:22:50.565Z,1.77
2023-01-12T20:25:21.343Z,1.40
2023-01-12T20:27:50.321Z,1.90
2023-01-12T20:30:32.039Z,1.63
2023-01-12T20:33:05.208Z,1.23
2023-01-12T20:35:34.983Z,1.50
2023-01-12T20:38:06.717Z,1.40
2023-01-12T20:40:36.630Z,1.30
2023-01-12T20:43:05.060Z,1.20
2023-01-12T20:45:33.655Z,1.30
2023-01-12T20:48:07.272Z,1.30
2023-01-12T20:50:35.653Z,1.30
2023-01-12T20:53:04.357Z,1.10
2023-01-12T20:55:32.899Z,1.40
2023-01-12T20:58:02.889Z,1.20
2023-01-12T21:00:32.004Z,1.40
2023-01-12T21:03:00.596Z,1.30
2023-01-12T21:05:29.135Z,1.47
2023-01-12T21:08:07.435Z,1.10
2023-01-12T21:10:37.092Z,1.10
2023-01-12T21:13:07.690Z,1.10
2023-01-12T21:15:36.582Z,1.20
2023-01-12T21:18:05.396Z,1.20
2023-01-12T21:20:33.830Z,1.20
2023-01-12T21:23:02.277Z,0.93
2023-01-12T21:25:30.807Z,0.90
2023-01-12T21:27:59.439Z,1.10
2023-01-12T21:30:30.599Z,0.97
2023-01-12T21:32:59.315Z,0.93
2023-01-12T21:35:28.814Z,1.30
2023-01-12T21:37:58.019Z,1.10
2023-01-12T21:40:26.545Z,1.20
2023-01-12T21:43:09.112Z,1.10
2023-01-12T21:45:39.261Z,0.93
2023-01-12T21:48:08.847Z,0.90
2023-01-12T21:50:38.391Z,1.00
2023-01-12T21:53:07.226Z,0.90
2023-01-12T21:55:36.108Z,0.93
2023-01-12T21:58:04.868Z,1.00
2023-01-12T22:00:33.295Z,0.70
2023-01-12T22:03:03.061Z,1.00
2023-01-12T22:05:32.553Z,1.00
2023-01-12T22:08:01.360Z,0.83
2023-01-12T22:10:31.473Z,1.20
2023-01-12T22:13:02.806Z,0.93
2023-01-12T22:15:31.882Z,0.90
2023-01-12T22:18:00.956Z,0.97
2023-01-12T22:20:30.902Z,0.90
2023-01-12T22:22:59.582Z,0.90
2023-01-12T22:25:28.475Z,0.97
2023-01-12T22:27:58.407Z,0.83
2023-01-12T22:30:27.904Z,1.50
2023-01-12T22:32:56.919Z,1.00
2023-01-12T22:35:26.117Z,1.10
2023-01-12T22:37:56.199Z,1.10
2023-01-12T22:40:24.712Z,1.10
2023-01-12T22:43:11.182Z,1.00
2023-01-12T22:45:40.566Z,0.80
2023-01-12T22:48:09.317Z,1.00
2023-01-12T22:50:38.200Z,0.80
2023-01-12T22:53:08.074Z,1.00
2023-01-12T22:55:40.308Z,1.00
2023-01-12T22:58:09.243Z,1.13
2023-01-12T23:00:39.871Z,1.00
2023-01-12T23:03:11.632Z,1.13
2023-01-12T23:05:55.127Z,0.93
2023-01-12T23:08:25.693Z,0.90
2023-01-12T23:10:54.781Z,0.70
2023-01-12T23:13:23.355Z,1.00
2023-01-12T23:15:53.697Z,1.00
2023-01-12T23:18:23.301Z,0.93
2023-01-12T23:20:51.896Z,1.20
2023-01-12T23:23:20.785Z,1.00
2023-01-12T23:25:50.643Z,0.93
2023-01-12T23:28:19.197Z,0.90
2023-01-12T23:30:47.710Z,0.97
2023-01-12T23:33:16.423Z,0.97
2023-01-12T23:35:45.017Z,1.10
2023-01-12T23:38:16.333Z,1.03
2023-01-12T23:40:44.886Z,0.80
2023-01-12T23:43:14.960Z,0.90
2023-01-12T23:45:43.706Z,0.90
2023-01-12T23:48:12.235Z,0.87
2023-01-12T23:50:40.765Z,0.90
2023-01-12T23:53:09.469Z,1.10
2023-01-12T23:55:39.769Z,1.10
2023-01-12T23:58:08.516Z,0.90
